Terminal Aerodrome Forecast
Issued by NWS Portland, OR

Home | Current Version | Previous Version | Text Only | Print | Product List | Glossary On
Versions: 1 2 3 4 5 6 7 8 9 10 11 12 13 14 15 16 17 18 19 20 21
000
FTUS46 KPQR 231824 RRA
TAFTTD
TAF
KTTD 231824Z 2318/2418 11003KT P6SM SCT035 BKN100
     FM231900 29004KT P6SM SCT100
     FM240100 00000KT P6SM SCT120=

USA.gov is the U.S. government's official web portal to all federal, state and local government web resources and services.